sensor_id;sensor_type;location;lat;lon;timestamp;temperature;humidity
10386;DHT22;34307;51.332;12.334;2023-06-14T00:00:43;13.70;66.40
10386;DHT22;34307;51.332;12.334;2023-06-14T00:03:11;13.60;67.70
10386;DHT22;34307;51.332;12.334;2023-06-14T00:05:45;13.60;69.70
10386;DHT22;34307;51.332;12.334;2023-06-14T00:08:13;13.50;70.10
10386;DHT22;34307;51.332;12.334;2023-06-14T00:10:42;13.50;71.80
10386;DHT22;34307;51.332;12.334;2023-06-14T00:13:13;13.40;73.30
10386;DHT22;34307;51.332;12.334;2023-06-14T00:15:44;13.40;74.30
10386;DHT22;34307;51.332;12.334;2023-06-14T00:18:13;13.40;74.80
10386;DHT22;34307;51.332;12.334;2023-06-14T00:20:41;13.30;76.00
10386;DHT22;34307;51.332;12.334;2023-06-14T00:23:16;13.30;76.80
10386;DHT22;34307;51.332;12.334;2023-06-14T00:25:45;13.30;78.30
10386;DHT22;34307;51.332;12.334;2023-06-14T00:28:15;13.30;79.50
10386;DHT22;34307;51.332;12.334;2023-06-14T00:30:59;13.30;79.90
10386;DHT22;34307;51.332;12.334;2023-06-14T00:33:28;13.20;80.60
10386;DHT22;34307;51.332;12.334;2023-06-14T00:36:24;13.20;81.30
10386;DHT22;34307;51.332;12.334;2023-06-14T00:39:09;13.10;82.50
10386;DHT22;34307;51.332;12.334;2023-06-14T00:41:37;13.10;83.90
10386;DHT22;34307;51.332;12.334;2023-06-14T00:44:17;13.00;85.30
10386;DHT22;34307;51.332;12.334;2023-06-14T00:46:47;12.90;87.00
10386;DHT22;34307;51.332;12.334;2023-06-14T00:49:17;12.90;87.90
10386;DHT22;34307;51.332;12.334;2023-06-14T00:51:46;12.90;88.50
10386;DHT22;34307;51.332;12.334;2023-06-14T00:54:16;12.80;90.10
10386;DHT22;34307;51.332;12.334;2023-06-14T00:56:45;12.80;90.10
10386;DHT22;34307;51.332;12.334;2023-06-14T00:59:14;12.80;91.00
10386;DHT22;34307;51.332;12.334;2023-06-14T01:01:43;12.80;91.50
10386;DHT22;34307;51.332;12.334;2023-06-14T01:04:14;12.70;91.60
10386;DHT22;34307;51.332;12.334;2023-06-14T01:06:49;12.70;92.20
10386;DHT22;34307;51.332;12.334;2023-06-14T01:09:27;12.70;92.50
10386;DHT22;34307;51.332;12.334;2023-06-14T01:12:07;12.70;92.70
10386;DHT22;34307;51.332;12.334;2023-06-14T01:14:36;12.70;93.40
10386;DHT22;34307;51.332;12.334;2023-06-14T01:17:05;12.70;92.70
10386;DHT22;34307;51.332;12.334;2023-06-14T01:19:44;12.60;93.40
10386;DHT22;34307;51.332;12.334;2023-06-14T01:22:13;12.70;94.10
10386;DHT22;34307;51.332;12.334;2023-06-14T01:24:43;12.70;93.90
10386;DHT22;34307;51.332;12.334;2023-06-14T01:27:12;12.60;94.40
10386;DHT22;34307;51.332;12.334;2023-06-14T01:29:43;12.60;94.80
10386;DHT22;34307;51.332;12.334;2023-06-14T01:32:13;12.60;95.00
10386;DHT22;34307;51.332;12.334;2023-06-14T01:34:42;12.50;95.30
10386;DHT22;34307;51.332;12.334;2023-06-14T01:37:12;12.50;95.50
10386;DHT22;34307;51.332;12.334;2023-06-14T01:39:43;12.50;96.30
10386;DHT22;34307;51.332;12.334;2023-06-14T01:42:13;12.40;97.50
10386;DHT22;34307;51.332;12.334;2023-06-14T01:44:42;12.40;97.40
10386;DHT22;34307;51.332;12.334;2023-06-14T01:47:12;12.40;97.50
10386;DHT22;34307;51.332;12.334;2023-06-14T01:49:42;12.30;98.30
10386;DHT22;34307;51.332;12.334;2023-06-14T01:52:09;12.30;98.50
10386;DHT22;34307;51.332;12.334;2023-06-14T01:54:37;12.30;99.10
10386;DHT22;34307;51.332;12.334;2023-06-14T01:57:12;12.20;99.90
10386;DHT22;34307;51.332;12.334;2023-06-14T01:59:40;12.30;99.90
10386;DHT22;34307;51.332;12.334;2023-06-14T02:02:08;12.20;99.90
10386;DHT22;34307;51.332;12.334;2023-06-14T02:04:36;12.10;99.90
10386;DHT22;34307;51.332;12.334;2023-06-14T02:07:08;12.10;99.90
10386;DHT22;34307;51.332;12.334;2023-06-14T02:09:36;12.00;99.90
10386;DHT22;34307;51.332;12.334;2023-06-14T02:12:06;12.00;99.90
10386;DHT22;34307;51.332;12.334;2023-06-14T02:14:43;12.00;99.90
10386;DHT22;34307;51.332;12.334;2023-06-14T02:17:15;11.90;99.90
10386;DHT22;34307;51.332;12.334;2023-06-14T02:19:46;11.90;99.90
10386;DHT22;34307;51.332;12.334;2023-06-14T02:22:15;11.90;99.90
10386;DHT22;34307;51.332;12.334;2023-06-14T02:24:46;11.90;99.90
10386;DHT22;34307;51.332;12.334;2023-06-14T02:27:22;11.90;99.90
10386;DHT22;34307;51.332;12.334;2023-06-14T02:29:52;11.90;99.90
10386;DHT22;34307;51.332;12.334;2023-06-14T02:32:20;11.80;99.90
10386;DHT22;34307;51.332;12.334;2023-06-14T02:34:49;11.80;99.90
10386;DHT22;34307;51.332;12.334;2023-06-14T02:37:19;11.70;99.90
10386;DHT22;34307;51.332;12.334;2023-06-14T02:39:48;11.70;99.90
10386;DHT22;34307;51.332;12.334;2023-06-14T02:42:24;11.70;99.90
10386;DHT22;34307;51.332;12.334;2023-06-14T02:44:59;11.60;99.90
10386;DHT22;34307;51.332;12.334;2023-06-14T02:47:27;11.70;99.90
10386;DHT22;34307;51.332;12.334;2023-06-14T02:49:55;11.70;99.90
10386;DHT22;34307;51.332;12.334;2023-06-14T02:52:24;11.70;99.90
10386;DHT22;34307;51.332;12.334;2023-06-14T02:54:56;11.70;99.90
10386;DHT22;34307;51.332;12.334;2023-06-14T02:57:24;11.70;99.90
10386;DHT22;34307;51.332;12.334;2023-06-14T02:59:52;11.70;99.90
10386;DHT22;34307;51.332;12.334;2023-06-14T03:02:25;11.70;99.90
10386;DHT22;34307;51.332;12.334;2023-06-14T03:04:57;11.60;99.90
10386;DHT22;34307;51.332;12.334;2023-06-14T03:07:30;11.60;99.90
10386;DHT22;34307;51.332;12.334;2023-06-14T03:09:59;11.70;99.90
10386;DHT22;34307;51.332;12.334;2023-06-14T03:12:30;11.70;99.90
10386;DHT22;34307;51.332;12.334;2023-06-14T03:15:05;11.60;99.90
10386;DHT22;34307;51.332;12.334;2023-06-14T03:17:37;11.60;99.90
10386;DHT22;34307;51.332;12.334;2023-06-14T03:20:07;11.70;99.90
10386;DHT22;34307;51.332;12.334;2023-06-14T03:22:38;11.70;99.90
10386;DHT22;34307;51.332;12.334;2023-06-14T03:25:09;11.60;99.90
10386;DHT22;34307;51.332;12.334;2023-06-14T03:27:37;11.60;99.90
10386;DHT22;34307;51.332;12.334;2023-06-14T03:30:08;11.60;99.90
10386;DHT22;34307;51.332;12.334;2023-06-14T03:32:41;11.60;99.90
10386;DHT22;34307;51.332;12.334;2023-06-14T03:35:12;11.60;99.90
10386;DHT22;34307;51.332;12.334;2023-06-14T03:37:48;11.60;99.90
10386;DHT22;34307;51.332;12.334;2023-06-14T03:40:18;11.50;99.90
10386;DHT22;34307;51.332;12.334;2023-06-14T03:42:47;11.50;99.90
10386;DHT22;34307;51.332;12.334;2023-06-14T03:45:16;11.50;99.90
10386;DHT22;34307;51.332;12.334;2023-06-14T03:47:46;11.50;99.90
10386;DHT22;34307;51.332;12.334;2023-06-14T03:50:17;11.60;99.90
10386;DHT22;34307;51.332;12.334;2023-06-14T03:52:47;11.60;99.90
10386;DHT22;34307;51.332;12.334;2023-06-14T03:55:16;11.60;99.90
10386;DHT22;34307;51.332;12.334;2023-06-14T03:57:47;11.70;99.90
10386;DHT22;34307;51.332;12.334;2023-06-14T04:00:15;11.70;99.90
10386;DHT22;34307;51.332;12.334;2023-06-14T04:02:48;11.70;99.90
10386;DHT22;34307;51.332;12.334;2023-06-14T04:05:17;11.70;99.90
10386;DHT22;34307;51.332;12.334;2023-06-14T04:07:49;11.70;99.90
10386;DHT22;34307;51.332;12.334;2023-06-14T04:10:20;11.70;99.90
10386;DHT22;34307;51.332;12.334;2023-06-14T04:12:50;11.80;99.90
10386;DHT22;34307;51.332;12.334;2023-06-14T04:15:21;11.80;99.90
10386;DHT22;34307;51.332;12.334;2023-06-14T04:17:52;11.90;99.90
10386;DHT22;34307;51.332;12.334;2023-06-14T04:20:24;11.90;99.90
10386;DHT22;34307;51.332;12.334;2023-06-14T04:22:56;11.90;99.90
10386;DHT22;34307;51.332;12.334;2023-06-14T04:25:25;11.90;99.90
10386;DHT22;34307;51.332;12.334;2023-06-14T04:27:55;12.00;99.90
10386;DHT22;34307;51.332;12.334;2023-06-14T04:30:27;12.00;99.90
10386;DHT22;34307;51.332;12.334;2023-06-14T04:32:59;12.10;99.90
10386;DHT22;34307;51.332;12.334;2023-06-14T04:35:27;12.10;99.90
10386;DHT22;34307;51.332;12.334;2023-06-14T04:37:55;12.20;99.90
10386;DHT22;34307;51.332;12.334;2023-06-14T04:40:25;12.10;99.90
10386;DHT22;34307;51.332;12.334;2023-06-14T04:42:53;12.10;99.90
10386;DHT22;34307;51.332;12.334;2023-06-14T04:45:21;12.20;99.90
10386;DHT22;34307;51.332;12.334;2023-06-14T04:47:50;12.20;99.90
10386;DHT22;34307;51.332;12.334;2023-06-14T04:50:27;12.20;99.90
10386;DHT22;34307;51.332;12.334;2023-06-14T04:52:56;12.30;99.90
10386;DHT22;34307;51.332;12.334;2023-06-14T04:55:28;12.40;99.90
10386;DHT22;34307;51.332;12.334;2023-06-14T04:57:57;12.50;99.90
10386;DHT22;34307;51.332;12.334;2023-06-14T05:00:26;12.50;99.90
10386;DHT22;34307;51.332;12.334;2023-06-14T05:02:55;12.60;99.90
10386;DHT22;34307;51.332;12.334;2023-06-14T05:05:25;12.70;99.90
10386;DHT22;34307;51.332;12.334;2023-06-14T05:07:55;12.80;99.90
10386;DHT22;34307;51.332;12.334;2023-06-14T05:10:27;12.90;99.90
10386;DHT22;34307;51.332;12.334;2023-06-14T05:12:56;12.90;99.90
10386;DHT22;34307;51.332;12.334;2023-06-14T05:15:25;13.10;99.90
10386;DHT22;34307;51.332;12.334;2023-06-14T05:17:58;13.20;99.90
10386;DHT22;34307;51.332;12.334;2023-06-14T05:20:42;13.30;99.90
10386;DHT22;34307;51.332;12.334;2023-06-14T05:23:12;13.50;99.90
10386;DHT22;34307;51.332;12.334;2023-06-14T05:25:44;13.50;99.90
10386;DHT22;34307;51.332;12.334;2023-06-14T05:28:15;13.60;99.90
10386;DHT22;34307;51.332;12.334;2023-06-14T05:30:45;13.70;99.90
10386;DHT22;34307;51.332;12.334;2023-06-14T05:33:15;13.80;99.90
10386;DHT22;34307;51.332;12.334;2023-06-14T05:35:45;13.90;99.30
10386;DHT22;34307;51.332;12.334;2023-06-14T05:38:13;13.90;98.50
10386;DHT22;34307;51.332;12.334;2023-06-14T05:40:41;14.00;97.00
10386;DHT22;34307;51.332;12.334;2023-06-14T05:43:09;14.10;96.40
10386;DHT22;34307;51.332;12.334;2023-06-14T05:45:38;14.10;96.20
10386;DHT22;34307;51.332;12.334;2023-06-14T05:48:06;14.20;95.60
10386;DHT22;34307;51.332;12.334;2023-06-14T05:50:35;14.30;95.50
10386;DHT22;34307;51.332;12.334;2023-06-14T05:53:06;14.30;94.90
10386;DHT22;34307;51.332;12.334;2023-06-14T05:55:34;14.30;95.90
10386;DHT22;34307;51.332;12.334;2023-06-14T05:58:03;14.40;95.50
10386;DHT22;34307;51.332;12.334;2023-06-14T06:00:32;14.40;94.50
10386;DHT22;34307;51.332;12.334;2023-06-14T06:03:02;14.50;93.20
10386;DHT22;34307;51.332;12.334;2023-06-14T06:05:35;14.60;93.00
10386;DHT22;34307;51.332;12.334;2023-06-14T06:08:03;14.60;91.70
10386;DHT22;34307;51.332;12.334;2023-06-14T06:10:33;14.60;92.70
10386;DHT22;34307;51.332;12.334;2023-06-14T06:13:02;14.60;92.60
10386;DHT22;34307;51.332;12.334;2023-06-14T06:15:30;14.60;91.60
10386;DHT22;34307;51.332;12.334;2023-06-14T06:18:03;14.70;91.90
10386;DHT22;34307;51.332;12.334;2023-06-14T06:20:33;14.80;91.60
10386;DHT22;34307;51.332;12.334;2023-06-14T06:23:01;15.00;90.60
10386;DHT22;34307;51.332;12.334;2023-06-14T06:25:29;15.10;85.60
10386;DHT22;34307;51.332;12.334;2023-06-14T06:28:09;15.00;84.60
10386;DHT22;34307;51.332;12.334;2023-06-14T06:30:38;15.10;84.30
10386;DHT22;34307;51.332;12.334;2023-06-14T06:33:07;15.10;83.00
10386;DHT22;34307;51.332;12.334;2023-06-14T06:35:40;15.30;83.30
10386;DHT22;34307;51.332;12.334;2023-06-14T06:38:08;15.30;79.40
10386;DHT22;34307;51.332;12.334;2023-06-14T06:40:37;15.40;80.20
10386;DHT22;34307;51.332;12.334;2023-06-14T06:43:09;15.50;79.50
10386;DHT22;34307;51.332;12.334;2023-06-14T06:45:40;15.60;79.30
10386;DHT22;34307;51.332;12.334;2023-06-14T06:48:27;15.80;77.10
10386;DHT22;34307;51.332;12.334;2023-06-14T06:50:57;15.90;76.50
10386;DHT22;34307;51.332;12.334;2023-06-14T06:53:29;16.00;72.80
10386;DHT22;34307;51.332;12.334;2023-06-14T06:56:10;16.10;70.30
10386;DHT22;34307;51.332;12.334;2023-06-14T06:58:39;16.30;69.40
10386;DHT22;34307;51.332;12.334;2023-06-14T07:01:07;16.40;67.40
10386;DHT22;34307;51.332;12.334;2023-06-14T07:03:36;16.60;65.50
10386;DHT22;34307;51.332;12.334;2023-06-14T07:06:04;16.70;62.20
10386;DHT22;34307;51.332;12.334;2023-06-14T07:08:32;16.70;62.00
10386;DHT22;34307;51.332;12.334;2023-06-14T07:11:02;16.80;61.10
10386;DHT22;34307;51.332;12.334;2023-06-14T07:13:31;16.80;61.00
10386;DHT22;34307;51.332;12.334;2023-06-14T07:16:04;16.90;60.80
10386;DHT22;34307;51.332;12.334;2023-06-14T07:18:33;17.00;60.80
10386;DHT22;34307;51.332;12.334;2023-06-14T07:21:03;17.00;59.20
10386;DHT22;34307;51.332;12.334;2023-06-14T07:23:31;17.30;58.60
10386;DHT22;34307;51.332;12.334;2023-06-14T07:26:02;17.30;57.50
10386;DHT22;34307;51.332;12.334;2023-06-14T07:28:32;17.30;56.50
10386;DHT22;34307;51.332;12.334;2023-06-14T07:31:04;17.50;55.90
10386;DHT22;34307;51.332;12.334;2023-06-14T07:33:31;17.60;54.50
10386;DHT22;34307;51.332;12.334;2023-06-14T07:39:54;17.70;53.60
10386;DHT22;34307;51.332;12.334;2023-06-14T07:42:21;17.70;54.00
10386;DHT22;34307;51.332;12.334;2023-06-14T07:44:50;17.70;52.60
10386;DHT22;34307;51.332;12.334;2023-06-14T07:47:20;17.80;51.90
10386;DHT22;34307;51.332;12.334;2023-06-14T07:49:53;17.90;51.80
10386;DHT22;34307;51.332;12.334;2023-06-14T07:52:21;18.10;51.40
10386;DHT22;34307;51.332;12.334;2023-06-14T07:54:50;18.20;49.60
10386;DHT22;34307;51.332;12.334;2023-06-14T07:57:18;18.30;49.00
10386;DHT22;34307;51.332;12.334;2023-06-14T07:59:48;18.40;48.80
10386;DHT22;34307;51.332;12.334;2023-06-14T08:02:20;18.80;48.20
10386;DHT22;34307;51.332;12.334;2023-06-14T08:04:48;19.40;43.20
10386;DHT22;34307;51.332;12.334;2023-06-14T08:07:18;20.10;39.30
10386;DHT22;34307;51.332;12.334;2023-06-14T08:09:47;20.50;35.50
10386;DHT22;34307;51.332;12.334;2023-06-14T08:12:19;20.60;33.10
10386;DHT22;34307;51.332;12.334;2023-06-14T08:14:49;20.80;33.60
10386;DHT22;34307;51.332;12.334;2023-06-14T08:17:42;21.20;31.00
10386;DHT22;34307;51.332;12.334;2023-06-14T08:20:11;21.20;28.60
10386;DHT22;34307;51.332;12.334;2023-06-14T08:22:42;21.40;27.80
10386;DHT22;34307;51.332;12.334;2023-06-14T08:25:13;21.30;26.70
10386;DHT22;34307;51.332;12.334;2023-06-14T08:31:31;21.70;24.00
10386;DHT22;34307;51.332;12.334;2023-06-14T08:34:13;21.30;21.20
10386;DHT22;34307;51.332;12.334;2023-06-14T08:36:42;21.60;21.30
10386;DHT22;34307;51.332;12.334;2023-06-14T08:39:13;21.50;18.90
10386;DHT22;34307;51.332;12.334;2023-06-14T08:41:51;21.70;19.10
10386;DHT22;34307;51.332;12.334;2023-06-14T08:44:23;21.70;18.80
10386;DHT22;34307;51.332;12.334;2023-06-14T08:46:57;21.80;18.90
10386;DHT22;34307;51.332;12.334;2023-06-14T08:50:02;22.10;18.80
10386;DHT22;34307;51.332;12.334;2023-06-14T08:53:01;22.30;16.80
10386;DHT22;34307;51.332;12.334;2023-06-14T09:03:41;21.70;10.70
10386;DHT22;34307;51.332;12.334;2023-06-14T09:06:30;21.60;9.00
10386;DHT22;34307;51.332;12.334;2023-06-14T09:08:59;21.80;7.90
10386;DHT22;34307;51.332;12.334;2023-06-14T09:11:31;21.70;5.30
10386;DHT22;34307;51.332;12.334;2023-06-14T09:14:00;21.40;6.00
10386;DHT22;34307;51.332;12.334;2023-06-14T09:16:33;21.70;7.30
10386;DHT22;34307;51.332;12.334;2023-06-14T09:19:03;22.00;6.50
10386;DHT22;34307;51.332;12.334;2023-06-14T09:21:35;22.30;6.10
10386;DHT22;34307;51.332;12.334;2023-06-14T09:24:06;22.50;3.40
10386;DHT22;34307;51.332;12.334;2023-06-14T09:26:43;22.50;4.50
10386;DHT22;34307;51.332;12.334;2023-06-14T09:29:17;22.70;2.60
10386;DHT22;34307;51.332;12.334;2023-06-14T09:31:46;23.00;4.50
10386;DHT22;34307;51.332;12.334;2023-06-14T09:34:18;23.20;1.60
10386;DHT22;34307;51.332;12.334;2023-06-14T09:36:52;22.90;1.10
10386;DHT22;34307;51.332;12.334;2023-06-14T09:39:20;22.60;2.30
10386;DHT22;34307;51.332;12.334;2023-06-14T09:41:49;22.80;2.70
10386;DHT22;34307;51.332;12.334;2023-06-14T09:44:19;23.00;1.10
10386;DHT22;34307;51.332;12.334;2023-06-14T09:46:48;23.10;1.00
10386;DHT22;34307;51.332;12.334;2023-06-14T09:49:19;22.90;1.00
10386;DHT22;34307;51.332;12.334;2023-06-14T09:51:53;23.10;1.00
10386;DHT22;34307;51.332;12.334;2023-06-14T09:54:23;23.20;1.00
10386;DHT22;34307;51.332;12.334;2023-06-14T09:56:56;23.20;1.00
10386;DHT22;34307;51.332;12.334;2023-06-14T09:59:29;23.10;1.00
10386;DHT22;34307;51.332;12.334;2023-06-14T10:02:05;23.40;1.00
10386;DHT22;34307;51.332;12.334;2023-06-14T10:04:36;23.50;1.00
10386;DHT22;34307;51.332;12.334;2023-06-14T10:07:08;23.50;1.00
10386;DHT22;34307;51.332;12.334;2023-06-14T10:09:38;23.60;1.00
10386;DHT22;34307;51.332;12.334;2023-06-14T10:12:16;23.50;1.00
10386;DHT22;34307;51.332;12.334;2023-06-14T10:14:52;23.40;1.00
10386;DHT22;34307;51.332;12.334;2023-06-14T10:17:30;23.60;1.00
10386;DHT22;34307;51.332;12.334;2023-06-14T10:20:11;23.80;1.00
10386;DHT22;34307;51.332;12.334;2023-06-14T10:22:50;24.10;1.00
10386;DHT22;34307;51.332;12.334;2023-06-14T10:25:27;24.20;1.00
10386;DHT22;34307;51.332;12.334;2023-06-14T10:31:05;25.10;1.00
10386;DHT22;34307;51.332;12.334;2023-06-14T10:33:35;25.30;1.00
10386;DHT22;34307;51.332;12.334;2023-06-14T10:36:29;25.20;1.00
10386;DHT22;34307;51.332;12.334;2023-06-14T10:39:04;25.40;1.00
10386;DHT22;34307;51.332;12.334;2023-06-14T10:41:38;25.20;1.00
10386;DHT22;34307;51.332;12.334;2023-06-14T10:44:37;24.70;1.00
10386;DHT22;34307;51.332;12.334;2023-06-14T10:47:21;23.60;1.00
10386;DHT22;34307;51.332;12.334;2023-06-14T10:50:05;23.30;1.00
10386;DHT22;34307;51.332;12.334;2023-06-14T10:52:38;23.50;1.00
10386;DHT22;34307;51.332;12.334;2023-06-14T10:55:16;23.00;1.00
10386;DHT22;34307;51.332;12.334;2023-06-14T10:58:00;22.90;1.00
10386;DHT22;34307;51.332;12.334;2023-06-14T11:00:43;23.20;1.00
10386;DHT22;34307;51.332;12.334;2023-06-14T11:03:36;23.60;1.00
10386;DHT22;34307;51.332;12.334;2023-06-14T11:06:16;23.90;1.00
10386;DHT22;34307;51.332;12.334;2023-06-14T11:09:19;24.40;1.00
10386;DHT22;34307;51.332;12.334;2023-06-14T11:11:53;24.60;1.00
10386;DHT22;34307;51.332;12.334;2023-06-14T11:14:21;24.90;1.00
10386;DHT22;34307;51.332;12.334;2023-06-14T11:16:51;25.00;1.00
10386;DHT22;34307;51.332;12.334;2023-06-14T11:19:19;24.80;1.00
10386;DHT22;34307;51.332;12.334;2023-06-14T11:21:51;24.60;1.00
10386;DHT22;34307;51.332;12.334;2023-06-14T11:24:21;25.00;1.00
10386;DHT22;34307;51.332;12.334;2023-06-14T11:26:56;25.50;1.00
10386;DHT22;34307;51.332;12.334;2023-06-14T11:29:25;25.80;1.00
10386;DHT22;34307;51.332;12.334;2023-06-14T11:31:54;26.20;1.00
10386;DHT22;34307;51.332;12.334;2023-06-14T11:34:22;26.10;1.00
10386;DHT22;34307;51.332;12.334;2023-06-14T11:36:50;26.50;1.00
10386;DHT22;34307;51.332;12.334;2023-06-14T11:39:34;26.40;1.00
10386;DHT22;34307;51.332;12.334;2023-06-14T11:42:08;26.80;1.00
10386;DHT22;34307;51.332;12.334;2023-06-14T11:44:40;27.00;1.00
10386;DHT22;34307;51.332;12.334;2023-06-14T11:47:09;27.20;1.00
10386;DHT22;34307;51.332;12.334;2023-06-14T11:49:40;27.20;1.00
10386;DHT22;34307;51.332;12.334;2023-06-14T11:52:08;27.10;1.00
10386;DHT22;34307;51.332;12.334;2023-06-14T11:54:39;27.00;1.00
10386;DHT22;34307;51.332;12.334;2023-06-14T11:57:11;25.90;1.00
10386;DHT22;34307;51.332;12.334;2023-06-14T11:59:41;24.80;1.00
10386;DHT22;34307;51.332;12.334;2023-06-14T12:02:13;24.40;1.00
10386;DHT22;34307;51.332;12.334;2023-06-14T12:04:47;25.10;1.00
10386;DHT22;34307;51.332;12.334;2023-06-14T12:07:17;26.10;1.00
10386;DHT22;34307;51.332;12.334;2023-06-14T12:10:04;26.40;1.00
10386;DHT22;34307;51.332;12.334;2023-06-14T12:12:38;26.60;1.00
10386;DHT22;34307;51.332;12.334;2023-06-14T12:15:08;27.40;1.00
10386;DHT22;34307;51.332;12.334;2023-06-14T12:17:44;27.90;1.00
10386;DHT22;34307;51.332;12.334;2023-06-14T12:20:13;28.40;1.00
10386;DHT22;34307;51.332;12.334;2023-06-14T12:22:52;27.90;1.00
10386;DHT22;34307;51.332;12.334;2023-06-14T12:25:29;26.50;1.00
10386;DHT22;34307;51.332;12.334;2023-06-14T12:28:06;25.50;1.00
10386;DHT22;34307;51.332;12.334;2023-06-14T12:30:37;25.20;1.00
10386;DHT22;34307;51.332;12.334;2023-06-14T12:33:07;25.00;1.00
10386;DHT22;34307;51.332;12.334;2023-06-14T12:35:35;25.70;1.00
10386;DHT22;34307;51.332;12.334;2023-06-14T12:38:04;26.70;1.00
10386;DHT22;34307;51.332;12.334;2023-06-14T12:40:35;26.40;1.00
10386;DHT22;34307;51.332;12.334;2023-06-14T12:43:06;26.20;1.00
10386;DHT22;34307;51.332;12.334;2023-06-14T12:45:36;25.50;1.00
10386;DHT22;34307;51.332;12.334;2023-06-14T12:48:04;25.10;1.00
10386;DHT22;34307;51.332;12.334;2023-06-14T12:50:33;24.70;1.00
10386;DHT22;34307;51.332;12.334;2023-06-14T12:53:29;24.40;1.00
10386;DHT22;34307;51.332;12.334;2023-06-14T12:56:00;23.80;1.00
10386;DHT22;34307;51.332;12.334;2023-06-14T12:58:31;23.70;1.00
10386;DHT22;34307;51.332;12.334;2023-06-14T13:01:00;23.80;1.00
10386;DHT22;34307;51.332;12.334;2023-06-14T13:03:29;23.40;1.00
10386;DHT22;34307;51.332;12.334;2023-06-14T13:05:58;23.50;1.00
10386;DHT22;34307;51.332;12.334;2023-06-14T13:08:30;24.00;1.00
10386;DHT22;34307;51.332;12.334;2023-06-14T13:14:51;23.90;1.00
10386;DHT22;34307;51.332;12.334;2023-06-14T13:17:24;23.60;1.00
10386;DHT22;34307;51.332;12.334;2023-06-14T13:20:09;23.70;1.00
10386;DHT22;34307;51.332;12.334;2023-06-14T13:22:49;23.70;1.00
10386;DHT22;34307;51.332;12.334;2023-06-14T13:25:23;23.90;1.00
10386;DHT22;34307;51.332;12.334;2023-06-14T13:27:55;23.70;1.00
10386;DHT22;34307;51.332;12.334;2023-06-14T13:30:51;23.40;1.00
10386;DHT22;34307;51.332;12.334;2023-06-14T13:33:23;23.30;1.00
10386;DHT22;34307;51.332;12.334;2023-06-14T13:35:57;23.40;1.00
10386;DHT22;34307;51.332;12.334;2023-06-14T13:38:27;23.70;1.00
10386;DHT22;34307;51.332;12.334;2023-06-14T13:41:24;23.70;1.00
10386;DHT22;34307;51.332;12.334;2023-06-14T13:44:28;23.70;1.00
10386;DHT22;34307;51.332;12.334;2023-06-14T13:47:37;24.00;1.00
10386;DHT22;34307;51.332;12.334;2023-06-14T13:50:36;24.20;1.00
10386;DHT22;34307;51.332;12.334;2023-06-14T13:53:32;24.40;1.00
10386;DHT22;34307;51.332;12.334;2023-06-14T13:56:32;24.60;1.00
10386;DHT22;34307;51.332;12.334;2023-06-14T13:59:38;24.70;1.00
10386;DHT22;34307;51.332;12.334;2023-06-14T14:02:22;24.80;1.00
10386;DHT22;34307;51.332;12.334;2023-06-14T14:05:06;24.80;1.00
10386;DHT22;34307;51.332;12.334;2023-06-14T14:07:59;24.40;1.00
10386;DHT22;34307;51.332;12.334;2023-06-14T14:10:29;24.30;1.00
10386;DHT22;34307;51.332;12.334;2023-06-14T14:13:21;24.30;1.00
10386;DHT22;34307;51.332;12.334;2023-06-14T14:16:45;24.70;1.00
10386;DHT22;34307;51.332;12.334;2023-06-14T14:19:24;25.30;1.00
10386;DHT22;34307;51.332;12.334;2023-06-14T14:22:42;25.50;1.00
10386;DHT22;34307;51.332;12.334;2023-06-14T14:25:12;25.30;1.00
10386;DHT22;34307;51.332;12.334;2023-06-14T14:27:55;25.00;1.00
10386;DHT22;34307;51.332;12.334;2023-06-14T14:30:33;24.80;1.00
10386;DHT22;34307;51.332;12.334;2023-06-14T14:33:11;24.50;1.00
10386;DHT22;34307;51.332;12.334;2023-06-14T14:35:45;25.90;1.00
10386;DHT22;34307;51.332;12.334;2023-06-14T14:38:20;27.60;1.00
10386;DHT22;34307;51.332;12.334;2023-06-14T14:41:03;28.10;1.00
10386;DHT22;34307;51.332;12.334;2023-06-14T14:43:32;27.90;1.00
10386;DHT22;34307;51.332;12.334;2023-06-14T14:46:17;27.90;1.00
10386;DHT22;34307;51.332;12.334;2023-06-14T14:49:03;28.00;1.00
10386;DHT22;34307;51.332;12.334;2023-06-14T14:51:44;27.10;1.00
10386;DHT22;34307;51.332;12.334;2023-06-14T14:54:19;26.10;1.00
10386;DHT22;34307;51.332;12.334;2023-06-14T14:57:12;25.50;1.00
10386;DHT22;34307;51.332;12.334;2023-06-14T14:59:56;24.70;1.00
10386;DHT22;34307;51.332;12.334;2023-06-14T15:02:43;24.60;1.00
10386;DHT22;34307;51.332;12.334;2023-06-14T15:05:12;24.70;1.00
10386;DHT22;34307;51.332;12.334;2023-06-14T15:07:59;24.70;1.00
10386;DHT22;34307;51.332;12.334;2023-06-14T15:10:46;24.90;1.00
10386;DHT22;34307;51.332;12.334;2023-06-14T15:13:16;25.10;1.00
10386;DHT22;34307;51.332;12.334;2023-06-14T15:15:45;25.10;1.00
10386;DHT22;34307;51.332;12.334;2023-06-14T15:18:13;24.80;1.00
10386;DHT22;34307;51.332;12.334;2023-06-14T15:20:43;24.50;1.00
10386;DHT22;34307;51.332;12.334;2023-06-14T15:23:12;24.80;1.00
10386;DHT22;34307;51.332;12.334;2023-06-14T15:25:54;25.70;1.00
10386;DHT22;34307;51.332;12.334;2023-06-14T15:28:24;25.70;1.00
10386;DHT22;34307;51.332;12.334;2023-06-14T15:30:55;25.20;1.00
10386;DHT22;34307;51.332;12.334;2023-06-14T15:33:26;24.40;1.00
10386;DHT22;34307;51.332;12.334;2023-06-14T15:36:10;25.60;1.00
10386;DHT22;34307;51.332;12.334;2023-06-14T15:38:39;27.80;1.00
10386;DHT22;34307;51.332;12.334;2023-06-14T15:41:15;29.10;1.00
10386;DHT22;34307;51.332;12.334;2023-06-14T15:43:45;30.00;1.00
10386;DHT22;34307;51.332;12.334;2023-06-14T15:46:14;29.60;1.00
10386;DHT22;34307;51.332;12.334;2023-06-14T15:48:43;28.40;1.00
10386;DHT22;34307;51.332;12.334;2023-06-14T15:51:25;28.20;1.00
10386;DHT22;34307;51.332;12.334;2023-06-14T15:54:16;27.40;1.00
10386;DHT22;34307;51.332;12.334;2023-06-14T15:57:14;26.30;1.00
10386;DHT22;34307;51.332;12.334;2023-06-14T15:59:46;25.60;1.00
10386;DHT22;34307;51.332;12.334;2023-06-14T16:02:20;25.30;1.00
10386;DHT22;34307;51.332;12.334;2023-06-14T16:04:49;24.80;1.00
10386;DHT22;34307;51.332;12.334;2023-06-14T16:07:19;24.40;1.00
10386;DHT22;34307;51.332;12.334;2023-06-14T16:09:50;24.10;1.00
10386;DHT22;34307;51.332;12.334;2023-06-14T16:12:28;24.30;1.00
10386;DHT22;34307;51.332;12.334;2023-06-14T16:15:06;23.90;1.00
10386;DHT22;34307;51.332;12.334;2023-06-14T16:17:41;24.00;1.00
10386;DHT22;34307;51.332;12.334;2023-06-14T16:20:29;23.80;1.00
10386;DHT22;34307;51.332;12.334;2023-06-14T16:23:52;23.70;1.00
10386;DHT22;34307;51.332;12.334;2023-06-14T16:27:02;23.30;1.00